createdAt,value
2019-02-06T00:00:30.157Z,70.10
2019-02-06T00:03:01.531Z,72.30
2019-02-06T00:05:31.267Z,68.40
2019-02-06T00:08:01.047Z,63.90
2019-02-06T00:10:30.856Z,67.07
2019-02-06T00:13:00.664Z,65.77
2019-02-06T00:15:30.442Z,58.43
2019-02-06T00:18:00.191Z,64.07
2019-02-06T00:20:30.307Z,60.63
2019-02-06T00:23:00.066Z,57.80
2019-02-06T00:25:31.452Z,64.10
2019-02-06T00:28:01.231Z,61.83
2019-02-06T00:30:31.029Z,61.57
2019-02-06T00:33:00.839Z,62.47
2019-02-06T00:35:30.571Z,58.77
2019-02-06T00:38:00.332Z,65.57
2019-02-06T00:40:30.125Z,60.13
2019-02-06T00:42:59.881Z,58.23
2019-02-06T00:45:29.647Z,57.07
2019-02-06T00:47:59.379Z,56.43
2019-02-06T00:50:29.372Z,56.30
2019-02-06T00:52:59.607Z,55.03
2019-02-06T00:55:29.368Z,57.13
2019-02-06T00:57:59.144Z,51.97
2019-02-06T01:00:28.900Z,57.27
2019-02-06T01:02:59.015Z,52.60
2019-02-06T01:05:38.066Z,54.37
2019-02-06T01:08:00.236Z,54.43
2019-02-06T01:10:30.002Z,53.90
2019-02-06T01:12:59.745Z,52.87
2019-02-06T01:15:29.527Z,49.83
2019-02-06T01:17:59.638Z,53.80
2019-02-06T01:20:29.408Z,53.83
2019-02-06T01:22:59.161Z,51.73
2019-02-06T01:25:28.929Z,51.33
2019-02-06T01:27:58.679Z,52.17
2019-02-06T01:30:33.139Z,53.47
2019-02-06T01:33:02.879Z,51.00
2019-02-06T01:35:32.643Z,51.13
2019-02-06T01:38:02.418Z,50.80
2019-02-06T01:40:32.207Z,52.33
2019-02-06T01:43:01.951Z,50.83
2019-02-06T01:45:31.777Z,53.87
2019-02-06T01:48:01.687Z,47.33
2019-02-06T01:50:31.463Z,52.73
2019-02-06T01:53:01.269Z,51.03
2019-02-06T01:55:31.036Z,52.03
2019-02-06T01:58:00.843Z,52.73
2019-02-06T02:00:30.682Z,48.80
2019-02-06T02:03:00.640Z,46.03
2019-02-06T02:05:30.368Z,50.40
2019-02-06T02:08:00.148Z,50.60
2019-02-06T02:10:29.892Z,48.73
2019-02-06T02:12:59.657Z,51.10
2019-02-06T02:15:29.410Z,47.90
2019-02-06T02:17:59.247Z,48.20
2019-02-06T02:20:28.982Z,47.30
2019-02-06T02:22:58.750Z,48.40
2019-02-06T02:25:28.495Z,48.40
2019-02-06T02:27:58.254Z,45.57
2019-02-06T02:30:32.346Z,44.47
2019-02-06T02:33:02.103Z,46.63
2019-02-06T02:35:31.854Z,42.27
2019-02-06T02:38:01.604Z,44.50
2019-02-06T02:40:31.394Z,45.10
2019-02-06T02:43:01.128Z,44.60
2019-02-06T02:45:32.239Z,44.93
2019-02-06T02:48:01.984Z,46.20
2019-02-06T02:50:31.792Z,47.00
2019-02-06T02:53:01.517Z,45.73
2019-02-06T02:55:31.276Z,49.33
2019-02-06T02:58:01.022Z,40.80
2019-02-06T03:00:35.433Z,43.93
2019-02-06T03:03:23.399Z,40.67
2019-02-06T03:05:53.159Z,40.57
2019-02-06T03:08:22.910Z,42.20
2019-02-06T03:10:52.691Z,41.40
2019-02-06T03:13:22.423Z,41.50
2019-02-06T03:15:52.204Z,38.93
2019-02-06T03:18:21.940Z,37.77
2019-02-06T03:20:51.696Z,37.60
2019-02-06T03:23:21.444Z,40.27
2019-02-06T03:25:51.216Z,40.50
2019-02-06T03:28:20.970Z,41.03
2019-02-06T03:30:50.733Z,36.97
2019-02-06T03:33:20.479Z,42.73
2019-02-06T03:35:50.218Z,36.47
2019-02-06T03:38:20.262Z,35.40
2019-02-06T03:40:50.035Z,36.00
2019-02-06T03:43:19.779Z,35.67
2019-02-06T03:45:49.518Z,36.20
2019-02-06T03:48:19.282Z,34.67
2019-02-06T03:50:49.066Z,35.73
2019-02-06T03:53:18.806Z,33.53
2019-02-06T03:55:49.545Z,33.30
2019-02-06T03:58:19.300Z,32.90
2019-02-06T04:00:49.059Z,35.50
2019-02-06T04:03:18.808Z,35.83
2019-02-06T04:05:48.565Z,34.07
2019-02-06T04:08:18.822Z,34.57
2019-02-06T04:10:48.612Z,34.43
2019-02-06T04:13:18.346Z,34.87
2019-02-06T04:15:48.182Z,31.23
2019-02-06T04:18:17.923Z,33.67
2019-02-06T04:20:47.707Z,35.23
2019-02-06T04:23:17.887Z,34.27
2019-02-06T04:25:47.765Z,32.10
2019-02-06T04:28:18.567Z,32.10
2019-02-06T04:30:48.297Z,34.87
2019-02-06T04:33:18.071Z,32.83
2019-02-06T04:35:47.821Z,31.97
2019-02-06T04:38:17.595Z,31.07
2019-02-06T04:40:47.370Z,29.33
2019-02-06T04:43:17.106Z,29.73
2019-02-06T04:45:46.870Z,30.87
2019-02-06T04:48:16.614Z,29.20
2019-02-06T04:50:46.371Z,31.33
2019-02-06T04:53:16.184Z,30.53
2019-02-06T04:55:45.946Z,28.63
2019-02-06T04:58:15.687Z,30.00
2019-02-06T05:00:45.449Z,29.57
2019-02-06T05:03:15.202Z,27.57
2019-02-06T05:05:44.970Z,29.83
2019-02-06T05:08:14.722Z,28.90
2019-02-06T05:10:44.489Z,28.27
2019-02-06T05:13:14.224Z,28.80
2019-02-06T05:15:43.985Z,27.03
2019-02-06T05:18:13.712Z,27.43
2019-02-06T05:20:43.496Z,28.87
2019-02-06T05:23:13.233Z,26.63
2019-02-06T05:25:43.025Z,26.43
2019-02-06T05:28:12.771Z,28.40
2019-02-06T05:30:42.548Z,28.60
2019-02-06T05:33:12.317Z,28.03
2019-02-06T05:35:42.076Z,27.03
2019-02-06T05:38:11.855Z,27.67
2019-02-06T05:40:41.609Z,27.63
2019-02-06T05:43:11.398Z,27.10
2019-02-06T05:45:41.136Z,28.03
2019-02-06T05:48:10.915Z,26.87
2019-02-06T05:50:40.657Z,28.00
2019-02-06T05:53:10.785Z,26.13
2019-02-06T05:55:40.537Z,27.17
2019-02-06T05:58:10.296Z,25.63
2019-02-06T06:00:41.196Z,25.60
2019-02-06T06:03:10.954Z,28.07
2019-02-06T06:05:40.693Z,26.03
2019-02-06T06:08:10.850Z,26.67
2019-02-06T06:10:40.608Z,25.87
2019-02-06T06:13:10.395Z,27.03
2019-02-06T06:15:40.139Z,25.70
2019-02-06T06:18:09.894Z,30.40
2019-02-06T06:20:39.668Z,37.33
2019-02-06T06:23:09.802Z,29.20
2019-02-06T06:25:39.540Z,29.27
2019-02-06T06:28:10.367Z,26.73
2019-02-06T06:30:40.109Z,27.63
2019-02-06T06:33:09.878Z,29.93
2019-02-06T06:35:39.612Z,25.83
2019-02-06T06:38:09.956Z,25.07
2019-02-06T06:40:39.684Z,28.83
2019-02-06T06:43:09.498Z,26.80
2019-02-06T06:45:39.240Z,29.00
2019-02-06T06:48:08.985Z,26.63
2019-02-06T06:50:39.938Z,26.70
2019-02-06T06:53:09.968Z,25.60
2019-02-06T06:55:39.715Z,27.47
2019-02-06T06:58:09.484Z,28.20
2019-02-06T07:00:39.252Z,28.20
2019-02-06T07:03:08.988Z,27.20
2019-02-06T07:05:38.735Z,26.87
2019-02-06T07:08:11.343Z,26.30
2019-02-06T07:10:39.996Z,25.57
2019-02-06T07:13:09.787Z,29.63
2019-02-06T07:15:39.522Z,28.77
2019-02-06T07:18:10.915Z,25.40
2019-02-06T07:20:40.667Z,25.33
2019-02-06T07:23:10.441Z,29.70
2019-02-06T07:25:40.178Z,25.20
2019-02-06T07:28:09.935Z,28.80
2019-02-06T07:30:39.697Z,26.07
2019-02-06T07:33:09.608Z,27.30
2019-02-06T07:35:39.624Z,28.20
2019-02-06T07:38:16.912Z,27.70
2019-02-06T07:40:40.910Z,24.90
2019-02-06T07:43:10.678Z,25.47
2019-02-06T07:45:40.462Z,27.80
2019-02-06T07:48:10.219Z,24.37
2019-02-06T07:50:40.200Z,25.07
2019-02-06T07:53:09.962Z,24.17
2019-02-06T07:55:39.865Z,25.03
2019-02-06T07:58:09.627Z,23.67
2019-02-06T08:00:39.381Z,25.53
2019-02-06T08:03:09.129Z,23.73
2019-02-06T08:05:39.146Z,22.07
2019-02-06T08:08:08.908Z,25.10
2019-02-06T08:10:38.660Z,26.50
2019-02-06T08:13:08.561Z,27.67
2019-02-06T08:15:38.282Z,25.57
2019-02-06T08:18:08.055Z,25.83
2019-02-06T08:20:37.964Z,26.47
2019-02-06T08:23:07.729Z,24.07
2019-02-06T08:25:37.541Z,25.03
2019-02-06T08:28:07.282Z,23.70
2019-02-06T08:30:39.171Z,25.73
2019-02-06T08:33:08.946Z,24.27
2019-02-06T08:35:39.736Z,23.43
2019-02-06T08:38:09.504Z,21.50
2019-02-06T08:40:39.267Z,23.77
2019-02-06T08:43:09.018Z,24.27
2019-02-06T08:45:38.773Z,23.10
2019-02-06T08:48:08.988Z,25.97
2019-02-06T08:50:38.729Z,23.63
2019-02-06T08:53:08.486Z,24.67
2019-02-06T08:55:38.220Z,22.03
2019-02-06T08:58:08.022Z,21.87
2019-02-06T09:00:39.782Z,22.00
2019-02-06T09:03:10.568Z,22.83
2019-02-06T09:05:40.327Z,25.07
2019-02-06T09:08:10.095Z,21.73
2019-02-06T09:10:39.821Z,22.20
2019-02-06T09:13:09.603Z,22.17
2019-02-06T09:15:39.341Z,24.73
2019-02-06T09:18:09.388Z,22.17
2019-02-06T09:20:39.156Z,24.33
2019-02-06T09:23:08.888Z,24.77
2019-02-06T09:25:38.647Z,22.43
2019-02-06T09:28:08.380Z,21.70
2019-02-06T09:30:38.273Z,22.83
2019-02-06T09:33:08.201Z,24.03
2019-02-06T09:35:50.199Z,25.93
2019-02-06T09:38:19.927Z,22.77
2019-02-06T09:40:49.858Z,22.70
2019-02-06T09:43:19.722Z,21.67
2019-02-06T09:45:49.654Z,22.37
2019-02-06T09:48:19.385Z,21.87
2019-02-06T09:50:49.134Z,24.87
2019-02-06T09:53:18.886Z,20.90
2019-02-06T09:55:48.631Z,23.47
2019-02-06T09:58:18.368Z,21.67
2019-02-06T10:00:48.304Z,22.93
2019-02-06T10:03:18.064Z,20.63
2019-02-06T10:05:47.798Z,21.13
2019-02-06T10:08:17.542Z,19.87
2019-02-06T10:10:47.327Z,19.17
2019-02-06T10:13:17.060Z,19.60
2019-02-06T10:15:47.004Z,22.33
2019-02-06T10:18:16.746Z,24.13
2019-02-06T10:20:48.425Z,20.43
2019-02-06T10:23:18.153Z,19.27
2019-02-06T10:25:47.918Z,19.17
2019-02-06T10:28:17.660Z,20.07
2019-02-06T10:30:48.868Z,20.90
2019-02-06T10:33:19.262Z,20.07
2019-02-06T10:35:52.022Z,21.80
2019-02-06T10:38:20.924Z,20.27
2019-02-06T10:40:50.836Z,17.90
2019-02-06T10:43:31.513Z,20.90
2019-02-06T10:45:52.690Z,19.60
2019-02-06T10:48:22.469Z,19.57
2019-02-06T10:50:52.272Z,20.93
2019-02-06T10:53:22.006Z,21.17
2019-02-06T10:55:51.751Z,18.33
2019-02-06T10:58:21.799Z,19.27
2019-02-06T11:00:54.133Z,19.20
2019-02-06T11:03:23.933Z,19.80
2019-02-06T11:05:53.704Z,18.20
2019-02-06T11:08:23.498Z,20.37
2019-02-06T11:10:53.265Z,19.33
2019-02-06T11:13:23.056Z,18.93
2019-02-06T11:15:53.108Z,18.37
2019-02-06T11:18:22.907Z,17.53
2019-02-06T11:20:52.670Z,17.20
2019-02-06T11:23:22.396Z,18.10
2019-02-06T11:25:52.177Z,16.80
2019-02-06T11:28:21.902Z,17.20
2019-02-06T11:30:51.698Z,17.77
2019-02-06T11:33:21.475Z,20.20
2019-02-06T11:35:51.194Z,19.47
2019-02-06T11:38:20.946Z,18.50
2019-02-06T11:40:50.685Z,18.23
2019-02-06T11:43:20.411Z,18.60
2019-02-06T11:45:50.229Z,20.90
2019-02-06T11:48:19.962Z,17.70
2019-02-06T11:50:49.726Z,17.97
2019-02-06T11:53:19.522Z,19.23
2019-02-06T11:55:49.658Z,20.43
2019-02-06T11:58:19.508Z,20.23
2019-02-06T12:00:53.867Z,17.90
2019-02-06T12:03:25.493Z,19.67
2019-02-06T12:05:57.127Z,18.33
2019-02-06T12:08:27.280Z,19.77
2019-02-06T12:10:57.023Z,20.80
2019-02-06T12:13:26.746Z,17.77
2019-02-06T12:15:56.489Z,18.83
2019-02-06T12:18:26.224Z,21.17
2019-02-06T12:20:55.966Z,20.37
2019-02-06T12:23:32.450Z,16.97
2019-02-06T12:25:57.118Z,19.93
2019-02-06T12:28:26.848Z,19.53
2019-02-06T12:30:57.652Z,16.60
2019-02-06T12:33:27.378Z,18.13
2019-02-06T12:35:57.137Z,16.27
2019-02-06T12:38:27.251Z,17.00
2019-02-06T12:40:57.022Z,15.07
2019-02-06T12:43:26.808Z,17.03
2019-02-06T12:45:56.557Z,16.93
2019-02-06T12:48:26.281Z,17.10
2019-02-06T12:50:56.035Z,15.80
2019-02-06T12:53:25.770Z,15.53
2019-02-06T12:55:56.015Z,13.80
2019-02-06T12:58:26.314Z,14.30
2019-02-06T13:00:56.368Z,14.23
2019-02-06T13:03:26.097Z,14.77
2019-02-06T13:05:55.857Z,15.33
2019-02-06T13:08:25.588Z,13.83
2019-02-06T13:10:55.358Z,13.70
2019-02-06T13:13:25.120Z,15.10
2019-02-06T13:15:54.866Z,14.73
2019-02-06T13:18:24.627Z,14.07
2019-02-06T13:20:54.375Z,13.17
2019-02-06T13:23:24.112Z,13.97
2019-02-06T13:25:54.151Z,15.17
2019-02-06T13:28:23.891Z,15.87
2019-02-06T13:30:53.638Z,13.23
2019-02-06T13:33:23.393Z,15.47
2019-02-06T13:35:53.147Z,15.07
2019-02-06T13:38:23.360Z,13.17
2019-02-06T13:40:53.507Z,16.27
2019-02-06T13:43:23.296Z,14.70
2019-02-06T13:45:53.056Z,16.77
2019-02-06T13:48:23.840Z,15.50
2019-02-06T13:50:53.586Z,13.73
2019-02-06T13:53:23.308Z,15.13
2019-02-06T13:55:53.276Z,15.00
2019-02-06T13:58:23.032Z,13.27
2019-02-06T14:00:52.809Z,14.27
2019-02-06T14:03:22.619Z,13.17
2019-02-06T14:05:52.448Z,13.63
2019-02-06T14:08:22.235Z,13.00
2019-02-06T14:11:00.234Z,16.17
2019-02-06T14:13:23.504Z,13.30
2019-02-06T14:15:53.276Z,12.53
2019-02-06T14:18:23.007Z,15.30
2019-02-06T14:20:52.778Z,12.50
2019-02-06T14:23:32.258Z,13.23
2019-02-06T14:26:14.074Z,15.00
2019-02-06T14:29:22.182Z,15.30
2019-02-06T14:31:58.093Z,15.00
2019-02-06T14:34:31.103Z,14.50
2019-02-06T14:37:22.197Z,13.13
2019-02-06T14:40:07.218Z,14.33
2019-02-06T14:42:58.368Z,13.10
2019-02-06T14:46:01.411Z,14.40
2019-02-06T14:48:39.623Z,15.17
2019-02-06T14:51:18.462Z,17.40
2019-02-06T14:53:57.284Z,13.83
2019-02-06T14:56:48.307Z,16.33
2019-02-06T14:59:21.287Z,13.97
2019-02-06T15:01:54.310Z,15.67
2019-02-06T15:04:46.708Z,13.70
2019-02-06T15:07:31.752Z,15.17
2019-02-06T15:10:18.991Z,15.07
2019-02-06T15:13:03.735Z,13.03
2019-02-06T15:15:36.776Z,16.33
2019-02-06T15:18:29.577Z,14.87
2019-02-06T15:21:11.502Z,14.37
2019-02-06T15:23:56.337Z,14.97
2019-02-06T15:26:35.319Z,14.00
2019-02-06T15:29:20.078Z,15.57
2019-02-06T15:31:59.121Z,15.20
2019-02-06T15:34:50.227Z,14.37
2019-02-06T15:37:26.273Z,13.37
2019-02-06T15:40:31.081Z,15.07
2019-02-06T15:43:09.891Z,15.20
2019-02-06T15:45:45.925Z,15.30
2019-02-06T15:48:37.386Z,16.20
2019-02-06T15:51:35.941Z,16.07
2019-02-06T15:54:26.788Z,16.40
2019-02-06T15:57:16.531Z,17.40
2019-02-06T16:00:08.867Z,16.20
2019-02-06T16:02:56.995Z,16.97
2019-02-06T16:05:34.410Z,17.83
2019-02-06T16:08:25.845Z,18.73
2019-02-06T16:11:07.692Z,17.13
2019-02-06T16:13:40.697Z,15.23
2019-02-06T16:16:48.858Z,16.17
2019-02-06T16:19:38.302Z,14.93
2019-02-06T16:22:23.451Z,16.13
2019-02-06T16:24:56.732Z,15.97
2019-02-06T16:27:50.627Z,16.07
2019-02-06T16:30:41.838Z,16.60
2019-02-06T16:33:34.346Z,17.57
2019-02-06T16:36:10.395Z,20.63
2019-02-06T16:39:00.073Z,20.70
2019-02-06T16:41:39.137Z,19.77
2019-02-06T16:44:26.899Z,18.77
2019-02-06T16:47:08.690Z,15.87
2019-02-06T16:49:50.635Z,17.03
2019-02-06T16:52:38.555Z,16.13
2019-02-06T16:55:45.035Z,17.93
2019-02-06T16:58:30.204Z,18.63
2019-02-06T17:01:19.592Z,19.27
2019-02-06T17:04:17.524Z,18.20
2019-02-06T17:07:05.444Z,17.33
2019-02-06T17:09:38.450Z,18.60
2019-02-06T17:12:36.714Z,16.13
2019-02-06T17:15:38.236Z,17.17
2019-02-06T17:18:34.044Z,17.10
2019-02-06T17:21:07.128Z,17.67
2019-02-06T17:23:49.197Z,17.43
2019-02-06T17:26:25.279Z,15.30
2019-02-06T17:29:18.255Z,15.83
2019-02-06T17:32:00.296Z,16.43
2019-02-06T17:34:38.868Z,15.63
2019-02-06T17:37:29.542Z,17.53
2019-02-06T17:40:31.255Z,16.40
2019-02-06T17:43:29.847Z,16.73
2019-02-06T17:46:08.490Z,18.90
2019-02-06T17:48:53.200Z,19.83
2019-02-06T17:51:32.035Z,20.10
2019-02-06T17:54:07.696Z,18.90
2019-02-06T17:56:38.590Z,17.87
2019-02-06T17:59:08.396Z,18.17
2019-02-06T18:01:38.212Z,16.37
2019-02-06T18:04:08.084Z,17.83
2019-02-06T18:06:37.876Z,18.97
2019-02-06T18:09:10.010Z,20.47
2019-02-06T18:11:39.781Z,19.17
2019-02-06T18:14:09.524Z,19.70
2019-02-06T18:16:39.488Z,19.07
2019-02-06T18:19:10.281Z,16.93
2019-02-06T18:21:40.037Z,19.87
2019-02-06T18:24:10.043Z,18.67
2019-02-06T18:26:41.282Z,24.63
2019-02-06T18:29:11.010Z,18.30
2019-02-06T18:31:40.784Z,20.20
2019-02-06T18:34:10.535Z,18.60
2019-02-06T18:36:40.285Z,16.20
2019-02-06T18:39:10.641Z,15.97
2019-02-06T18:41:40.592Z,17.67
2019-02-06T18:44:10.339Z,18.00
2019-02-06T18:46:40.211Z,16.53
2019-02-06T18:49:10.016Z,16.60
2019-02-06T18:51:39.932Z,16.10
2019-02-06T18:54:09.696Z,19.30
2019-02-06T18:56:39.445Z,20.87
2019-02-06T18:59:09.465Z,18.63
2019-02-06T19:01:39.240Z,17.50
2019-02-06T19:04:11.180Z,21.00
2019-02-06T19:06:40.630Z,18.90
2019-02-06T19:09:13.055Z,18.57
2019-02-06T19:11:42.828Z,19.03
2019-02-06T19:14:13.727Z,20.43
2019-02-06T19:16:43.663Z,19.60
2019-02-06T19:19:13.443Z,21.60
2019-02-06T19:21:43.177Z,18.00
2019-02-06T19:24:12.976Z,20.50
2019-02-06T19:26:42.802Z,21.97
2019-02-06T19:29:12.587Z,22.43
2019-02-06T19:31:42.503Z,26.63
2019-02-06T19:34:12.272Z,20.23
2019-02-06T19:36:42.082Z,22.13
2019-02-06T19:39:11.860Z,19.77
2019-02-06T19:41:41.642Z,20.60
2019-02-06T19:44:11.600Z,18.13
2019-02-06T19:46:41.332Z,19.67
2019-02-06T19:49:11.250Z,19.03
2019-02-06T19:51:41.007Z,22.53
2019-02-06T19:54:10.766Z,17.70
2019-02-06T19:56:40.721Z,17.90
2019-02-06T19:59:10.533Z,19.93
2019-02-06T20:01:40.332Z,20.53
2019-02-06T20:04:10.117Z,18.10
2019-02-06T20:06:40.361Z,20.80
2019-02-06T20:09:10.167Z,18.30
2019-02-06T20:11:39.968Z,17.83
2019-02-06T20:14:09.732Z,20.70
2019-02-06T20:16:40.579Z,17.77
2019-02-06T20:19:10.409Z,17.90
2019-02-06T20:21:40.439Z,18.23
2019-02-06T20:24:10.186Z,18.27
2019-02-06T20:26:39.948Z,16.70
2019-02-06T20:29:09.701Z,17.20
2019-02-06T20:31:39.523Z,17.00
2019-02-06T20:34:09.370Z,16.63
2019-02-06T20:36:39.153Z,17.63
2019-02-06T20:39:09.164Z,17.30
2019-02-06T20:41:40.147Z,18.27
2019-02-06T20:44:10.939Z,16.00
2019-02-06T20:46:40.794Z,16.10
2019-02-06T20:49:10.567Z,17.13
2019-02-06T20:51:40.350Z,16.10
2019-02-06T20:54:10.478Z,17.93
2019-02-06T20:56:40.264Z,18.33
2019-02-06T20:59:10.110Z,17.07
2019-02-06T21:01:39.913Z,18.57
2019-02-06T21:04:09.693Z,18.20
2019-02-06T21:06:39.450Z,18.70
2019-02-06T21:09:11.561Z,20.20
2019-02-06T21:11:41.336Z,17.43
2019-02-06T21:14:11.086Z,17.17
2019-02-06T21:16:41.301Z,21.33
2019-02-06T21:19:11.036Z,18.93
2019-02-06T21:21:40.824Z,19.00
2019-02-06T21:24:11.012Z,18.93
2019-02-06T21:26:40.811Z,17.23
2019-02-06T21:29:10.584Z,18.97
2019-02-06T21:31:40.315Z,19.57
2019-02-06T21:34:10.150Z,17.73
2019-02-06T21:36:39.898Z,18.70
2019-02-06T21:39:09.840Z,18.30
2019-02-06T21:41:39.621Z,19.43
2019-02-06T21:44:09.381Z,17.77
2019-02-06T21:46:39.135Z,18.90
2019-02-06T21:49:09.001Z,18.67
2019-02-06T21:51:38.776Z,17.60
2019-02-06T21:54:08.688Z,17.93
2019-02-06T21:56:38.492Z,20.20
2019-02-06T21:59:08.228Z,19.23
2019-02-06T22:01:37.979Z,18.73
2019-02-06T22:04:07.730Z,21.23
2019-02-06T22:06:37.472Z,19.13
2019-02-06T22:09:08.671Z,18.60
2019-02-06T22:11:38.667Z,18.60
2019-02-06T22:14:08.456Z,16.67
2019-02-06T22:16:38.371Z,18.13
2019-02-06T22:19:08.333Z,18.77
2019-02-06T22:21:38.525Z,19.07
2019-02-06T22:24:08.252Z,17.27
2019-02-06T22:26:38.013Z,18.37
2019-02-06T22:29:07.812Z,21.03
2019-02-06T22:31:37.613Z,21.90
2019-02-06T22:34:07.503Z,21.80
2019-02-06T22:36:37.239Z,25.10
2019-02-06T22:39:10.019Z,26.90
2019-02-06T22:41:39.741Z,26.13
2019-02-06T22:44:09.500Z,23.27
2019-02-06T22:46:39.304Z,25.43
2019-02-06T22:49:09.450Z,25.13
2019-02-06T22:51:39.300Z,24.40
2019-02-06T22:54:12.058Z,25.60
2019-02-06T22:56:41.826Z,26.70
2019-02-06T22:59:11.584Z,25.83
2019-02-06T23:01:41.886Z,25.40
2019-02-06T23:04:11.649Z,25.20
2019-02-06T23:06:41.391Z,23.67
2019-02-06T23:09:11.240Z,26.13
2019-02-06T23:11:40.997Z,24.27
2019-02-06T23:14:17.135Z,26.07
2019-02-06T23:16:42.192Z,25.27
2019-02-06T23:19:11.978Z,25.00
2019-02-06T23:21:41.722Z,25.17
2019-02-06T23:24:11.539Z,23.83
2019-02-06T23:26:41.322Z,23.77
2019-02-06T23:29:11.079Z,24.07
2019-02-06T23:31:40.892Z,20.83
2019-02-06T23:34:10.665Z,22.90
2019-02-06T23:36:40.415Z,22.67
2019-02-06T23:39:14.321Z,18.83
2019-02-06T23:41:44.930Z,22.70
2019-02-06T23:44:15.026Z,19.17
2019-02-06T23:46:44.760Z,20.17
2019-02-06T23:49:14.526Z,21.33
2019-02-06T23:51:44.345Z,21.20
2019-02-06T23:54:14.104Z,18.80
2019-02-06T23:56:43.840Z,19.03
2019-02-06T23:59:13.973Z,20.63
